Kittiwake — WBU8148 — position and weather

sailwx.info

Track history (hours):
 
Tides and Currents Weather Stations Pressure Air Temp Water Temp Dewpoint Dewpoint Depression Visibility Wind Speed Wind Dir Waves Ship Positions

Kittiwake

Owner: EATON, CHARLES M, SEATTLE, WA. More information available from US FCC via Universal Licensing System and Coast Guard Vessel Documentation Center.

Last reported at 2018-Apr-22 07:28 UTC. Time now 2018-Apr-27 08:42 UTC.
Position N 47°39' W 122°23'.

Length 13 m.

Type: . MMSI: 367343760.

Date/timePositionNaut miles runAvg speedWind from/ knotsBaromVisibWave heightAir tempDewpointWater temp
2018-Apr-22 07:28N 47°39' W 122°23'2 3.5
2018-Apr-22 07:00N 47°39' W 122°21'1 1.8
2018-Apr-22 06:15N 47°39' W 122°19'0 0.0
2018-Apr-22 02:17N 47°39' W 122°18'0 0.1
2018-Apr-21 21:54N 47°39' W 122°19'2 5.1
2018-Apr-21 21:31N 47°39' W 122°22'1 0.1
2018-Apr-21 05:28N 47°39' W 122°23'2 4.2
2018-Apr-21 05:01N 47°39' W 122°20'1 1.7
2018-Apr-21 04:19N 47°39' W 122°19'1 0.1
2018-Apr-20 23:57N 47°39' W 122°18'1 0.2
2018-Apr-20 21:16N 47°39' W 122°18'0 0.6
2018-Apr-20 20:54N 47°39' W 122°19'2 4.9
2018-Apr-20 20:30N 47°39' W 122°22'1 0.0
2018-Apr-18 23:47N 47°39' W 122°23'0 0.0
2018-Apr-18 22:31N 47°39' W 122°23'0 0.0
2018-Apr-18 22:28N 47°39' W 122°23'0 0.0
2018-Apr-18 21:58N 47°39' W 122°23'0 0.0
2018-Apr-18 21:28N 47°39' W 122°23'0 0.0
2018-Apr-18 20:58N 47°39' W 122°23'0 0.0
2018-Apr-18 20:28N 47°39' W 122°23'0 0.0
2018-Apr-18 19:58N 47°39' W 122°23'0 0.0
2018-Apr-18 19:28N 47°39' W 122°23'0 0.0
2018-Apr-18 18:58N 47°39' W 122°23'0 0.0
2018-Apr-18 18:28N 47°39' W 122°23'0 0.0
2018-Apr-18 17:58N 47°39' W 122°23'0 0.0
2018-Apr-18 17:28N 47°39' W 122°23'0 0.0
2018-Apr-18 16:58N 47°39' W 122°23'0 0.0
2018-Apr-18 16:28N 47°39' W 122°23'0 0.0
2018-Apr-18 15:58N 47°39' W 122°23'0 0.0
2018-Apr-18 15:28N 47°39' W 122°23'0 0.0
2018-Apr-18 14:58N 47°39' W 122°23'0 0.0
2018-Apr-18 14:28N 47°39' W 122°23'0 0.0
2018-Apr-18 13:58N 47°39' W 122°23'0 0.0
2018-Apr-18 13:28N 47°39' W 122°23'0 0.0
2018-Apr-18 12:58N 47°39' W 122°23'0 0.0
2018-Apr-18 12:28N 47°39' W 122°23'0 0.0
2018-Apr-18 11:58N 47°39' W 122°23'0 0.0
2018-Apr-18 11:28N 47°39' W 122°23'0 0.0
2018-Apr-18 10:58N 47°39' W 122°23'0 0.0
2018-Apr-18 10:28N 47°39' W 122°23'0 0.0
2018-Apr-18 09:58N 47°39' W 122°23'0 0.0
2018-Apr-18 09:28N 47°39' W 122°23'0 0.0
2018-Apr-18 08:58N 47°39' W 122°23'0 0.0
2018-Apr-18 08:28N 47°39' W 122°23'0 0.0
2018-Apr-18 07:58N 47°39' W 122°23'0 0.0
2018-Apr-18 07:28N 47°39' W 122°23'0 0.0
2018-Apr-18 06:58N 47°39' W 122°23'0 0.0
2018-Apr-18 06:28N 47°39' W 122°23'0 0.0
2018-Apr-18 05:58N 47°39' W 122°23'0 0.0
2018-Apr-18 05:28N 47°39' W 122°23'0 0.0
2018-Apr-18 04:58N 47°39' W 122°23'0 0.0
2018-Apr-18 04:28N 47°39' W 122°23'0 0.0
2018-Apr-18 03:58N 47°39' W 122°23'0 0.0
2018-Apr-18 03:28N 47°39' W 122°23'0 0.0
2018-Apr-18 02:58N 47°39' W 122°23'0 0.0
2018-Apr-18 02:28N 47°39' W 122°23'0 0.0
2018-Apr-18 01:58N 47°39' W 122°23'0 0.0
2018-Apr-18 01:28N 47°39' W 122°23'0 0.0
2018-Apr-18 00:58N 47°39' W 122°23'0 0.0
2018-Apr-18 00:28N 47°39' W 122°23'0 0.0
2018-Apr-17 23:58N 47°39' W 122°23'0 0.0
2018-Apr-17 23:28N 47°39' W 122°23'0 0.0
2018-Apr-17 22:58N 47°39' W 122°23'0 0.0
2018-Apr-17 22:28N 47°39' W 122°23'0 0.0
2018-Apr-17 21:58N 47°39' W 122°23'0 0.0
2018-Apr-17 21:28N 47°39' W 122°23'0 0.0
2018-Apr-17 20:58N 47°39' W 122°23'0 0.0
2018-Apr-17 20:28N 47°39' W 122°23'0 0.0
2018-Apr-17 19:58N 47°39' W 122°23'0 0.0
2018-Apr-17 19:28N 47°39' W 122°23'0 0.0
2018-Apr-17 18:58N 47°39' W 122°23'0 0.0
2018-Apr-17 18:28N 47°39' W 122°23'0 0.0
2018-Apr-17 17:58N 47°39' W 122°23'0 0.0
2018-Apr-17 17:28N 47°39' W 122°23'0 0.0
2018-Apr-17 16:58N 47°39' W 122°23'0 0.0
2018-Apr-17 16:28N 47°39' W 122°23'0 0.0
2018-Apr-17 15:58N 47°39' W 122°23'0 0.0
2018-Apr-17 15:28N 47°39' W 122°23'0 0.0
2018-Apr-17 14:58N 47°39' W 122°23'0 0.0
2018-Apr-17 14:28N 47°39' W 122°23'0 0.0
2018-Apr-17 13:58N 47°39' W 122°23'0 0.0
2018-Apr-17 13:28N 47°39' W 122°23'0 0.0
2018-Apr-17 12:58N 47°39' W 122°23'0 0.0
2018-Apr-17 12:28N 47°39' W 122°23'0 0.0
2018-Apr-17 11:58N 47°39' W 122°23'0 0.0
2018-Apr-17 11:28N 47°39' W 122°23'0 0.0
2018-Apr-17 10:58N 47°39' W 122°23'0 0.0
2018-Apr-17 10:28N 47°39' W 122°23'0 0.0
2018-Apr-17 09:55N 47°39' W 122°23'0 0.0
2018-Apr-17 09:28N 47°39' W 122°23'0 0.0
2018-Apr-17 08:58N 47°39' W 122°23'0 0.0
2018-Apr-17 08:28N 47°39' W 122°23'0 0.0
2018-Apr-17 07:58N 47°39' W 122°23'0 0.0
2018-Apr-17 07:28N 47°39' W 122°23'0 0.0
2018-Apr-17 06:55N 47°39' W 122°23'0 0.0
2018-Apr-17 06:28N 47°39' W 122°23'0 0.0
2018-Apr-17 05:59N 47°39' W 122°23'0 0.0
2018-Apr-17 05:28N 47°39' W 122°23'0 0.0
2018-Apr-17 04:58N 47°39' W 122°23'0 0.0
2018-Apr-17 04:28N 47°39' W 122°23'0 0.0
2018-Apr-17 03:58N 47°39' W 122°23'0 0.0
2018-Apr-17 03:28N 47°39' W 122°23'0 0.0
2018-Apr-17 02:58N 47°39' W 122°23'0 0.0
2018-Apr-17 02:28N 47°39' W 122°23'0 0.0
2018-Apr-17 01:58N 47°39' W 122°23'0 0.0
2018-Apr-17 01:28N 47°39' W 122°23'0 0.0
2018-Apr-17 00:58N 47°39' W 122°23'0 0.0
2018-Apr-17 00:28N 47°39' W 122°23'0 0.0
2018-Apr-16 23:58N 47°39' W 122°23'0 0.0
2018-Apr-16 23:28N 47°39' W 122°23'0 0.0
2018-Apr-16 22:58N 47°39' W 122°23'0 0.0
2018-Apr-16 22:28N 47°39' W 122°23'0 0.0
2018-Apr-16 21:59N 47°39' W 122°23'0 0.0
2018-Apr-16 21:29N 47°39' W 122°23'0 0.0
2018-Apr-16 20:58N 47°39' W 122°23'0 0.0
2018-Apr-16 20:28N 47°39' W 122°23'0 0.0
2018-Apr-16 19:58N 47°39' W 122°23'0 0.0
2018-Apr-16 19:28N 47°39' W 122°23'0 0.0
2018-Apr-16 18:58N 47°39' W 122°23'0 0.0
2018-Apr-16 18:28N 47°39' W 122°23'0 0.0
2018-Apr-16 17:58N 47°39' W 122°23'0 0.0
2018-Apr-16 17:28N 47°39' W 122°23'0 0.0
2018-Apr-16 16:58N 47°39' W 122°23'0 0.0
2018-Apr-16 16:28N 47°39' W 122°23'0 0.0
2018-Apr-16 15:58N 47°39' W 122°23'0 0.0
2018-Apr-16 15:28N 47°39' W 122°23'0 0.0
2018-Apr-16 14:58N 47°39' W 122°23'0 0.0
2018-Apr-16 14:28N 47°39' W 122°23'0 0.0
2018-Apr-16 13:58N 47°39' W 122°23'0 0.0
2018-Apr-16 13:28N 47°39' W 122°23'0 0.0
2018-Apr-16 12:58N 47°39' W 122°23'0 0.0
2018-Apr-16 12:28N 47°39' W 122°23'0 0.0
2018-Apr-16 11:58N 47°39' W 122°23'0 0.0
2018-Apr-16 11:28N 47°39' W 122°23'0 0.0
2018-Apr-16 10:58N 47°39' W 122°23'0 0.0
2018-Apr-16 10:28N 47°39' W 122°23'0 0.0
2018-Apr-16 09:58N 47°39' W 122°23'0 0.0
2018-Apr-16 09:28N 47°39' W 122°23'0 0.0
2018-Apr-16 08:58N 47°39' W 122°23'0 0.0
2018-Apr-16 08:28N 47°39' W 122°23'0 0.0
2018-Apr-16 07:58N 47°39' W 122°23'0 0.0
2018-Apr-16 07:28N 47°39' W 122°23'0 0.0
2018-Apr-16 06:55N 47°39' W 122°23'0 0.0
2018-Apr-16 06:25N 47°39' W 122°23'0 0.0
2018-Apr-16 05:58N 47°39' W 122°23'0 0.0
2018-Apr-16 05:28N 47°39' W 122°23'0 0.0
2018-Apr-16 04:58N 47°39' W 122°23'0 0.0
2018-Apr-16 04:28N 47°39' W 122°23'0 0.0
2018-Apr-16 03:58N 47°39' W 122°23'0 0.0
2018-Apr-16 03:25N 47°39' W 122°23'0 0.0
2018-Apr-16 02:58N 47°39' W 122°23'0 0.0
2018-Apr-16 02:28N 47°39' W 122°23'0 0.0
2018-Apr-16 01:58N 47°39' W 122°23'0 0.0
2018-Apr-16 01:28N 47°39' W 122°23'0 0.0
2018-Apr-16 00:58N 47°39' W 122°23'0 0.0
2018-Apr-16 00:28N 47°39' W 122°23'0 0.0
2018-Apr-15 23:58N 47°39' W 122°23'0 0.0
2018-Apr-15 23:28N 47°39' W 122°23'0 0.0
2018-Apr-15 22:58N 47°39' W 122°23'0 0.0
2018-Apr-15 22:28N 47°39' W 122°23'0 0.0
2018-Apr-15 21:58N 47°39' W 122°23'0 0.0
2018-Apr-15 21:28N 47°39' W 122°23'0 0.0
2018-Apr-15 20:58N 47°39' W 122°23'0 0.0
2018-Apr-15 20:28N 47°39' W 122°23'0 0.0
2018-Apr-15 19:58N 47°39' W 122°23'0 0.0
2018-Apr-15 19:28N 47°39' W 122°23'0 0.0
2018-Apr-15 18:58N 47°39' W 122°23'0 0.0
2018-Apr-15 18:28N 47°39' W 122°23'0 0.0
2018-Apr-15 17:58N 47°39' W 122°23'0 0.0
2018-Apr-15 17:28N 47°39' W 122°23'0 0.0
2018-Apr-15 16:58N 47°39' W 122°23'0 0.0
2018-Apr-15 16:28N 47°39' W 122°23'0 0.0
2018-Apr-15 15:58N 47°39' W 122°23'0 0.0
2018-Apr-15 15:28N 47°39' W 122°23'0 0.0
2018-Apr-15 14:55N 47°39' W 122°23'0 0.0
2018-Apr-15 14:28N 47°39' W 122°23'0 0.0
2018-Apr-15 13:58N 47°39' W 122°23'0 0.0
2018-Apr-15 13:28N 47°39' W 122°23'0 0.0
2018-Apr-15 12:58N 47°39' W 122°23'0 0.0
2018-Apr-15 12:28N 47°39' W 122°23'0 0.0
2018-Apr-15 11:58N 47°39' W 122°23'0 0.0
2018-Apr-15 11:28N 47°39' W 122°23'0 0.0
2018-Apr-15 10:58N 47°39' W 122°23'0 0.0
2018-Apr-15 10:29N 47°39' W 122°23'0 0.0
2018-Apr-15 09:59N 47°39' W 122°23'0 0.0
2018-Apr-15 09:28N 47°39' W 122°23'0 0.0
2018-Apr-15 08:58N 47°39' W 122°23'0 0.0
2018-Apr-15 08:28N 47°39' W 122°23'0 0.0
2018-Apr-15 07:58N 47°39' W 122°23'0 0.0
2018-Apr-15 07:28N 47°39' W 122°23'0 0.0
2018-Apr-15 06:58N 47°39' W 122°23'0 0.0
2018-Apr-15 06:28N 47°39' W 122°23'0 0.0
2018-Apr-15 05:58N 47°39' W 122°23'0 0.0
2018-Apr-15 05:28N 47°39' W 122°23'0 0.0
2018-Apr-15 04:58N 47°39' W 122°23'0 0.0
2018-Apr-15 04:28N 47°39' W 122°23'0 0.0
2018-Apr-15 03:58N 47°39' W 122°23'0 0.0
2018-Apr-15 03:28N 47°39' W 122°23'0 0.0
2018-Apr-15 02:58N 47°39' W 122°23'0 0.0
2018-Apr-15 02:28N 47°39' W 122°23'0 0.0
2018-Apr-15 01:58N 47°39' W 122°23'0 0.0
2018-Apr-15 01:28N 47°39' W 122°23'0 0.0
2018-Apr-15 00:58N 47°39' W 122°23'0 0.0
2018-Apr-15 00:28N 47°39' W 122°23'0 0.0
2018-Apr-14 23:58N 47°39' W 122°23'0 0.0
2018-Apr-14 23:25N 47°39' W 122°23'0 0.0
2018-Apr-14 22:58N 47°39' W 122°23'0 0.0
2018-Apr-14 22:28N 47°39' W 122°23'0 0.0
2018-Apr-14 21:58N 47°39' W 122°23'0 0.0
2018-Apr-14 21:28N 47°39' W 122°23'0 0.0
2018-Apr-14 20:46N 47°39' W 122°23'0 0.0
2018-Apr-14 20:25N 47°39' W 122°23'0 0.0
2018-Apr-14 19:58N 47°39' W 122°23'0 0.0
2018-Apr-14 19:25N 47°39' W 122°23'0 0.0
2018-Apr-14 18:58N 47°39' W 122°23'0 0.0
2018-Apr-14 18:28N 47°39' W 122°23'0 0.0
2018-Apr-14 17:52N 47°39' W 122°23'0 0.0
2018-Apr-14 17:28N 47°39' W 122°23'0 0.0
2018-Apr-14 16:58N 47°39' W 122°23'0 0.0
2018-Apr-14 16:28N 47°39' W 122°23'0 0.0
2018-Apr-14 15:58N 47°39' W 122°23'0 0.0
2018-Apr-14 15:28N 47°39' W 122°23'0 0.0
2018-Apr-14 14:58N 47°39' W 122°23'0 0.0
2018-Apr-14 14:28N 47°39' W 122°23'0 0.0
2018-Apr-14 13:58N 47°39' W 122°23'0 0.0
2018-Apr-14 13:28N 47°39' W 122°23'0 0.0
2018-Apr-14 12:58N 47°39' W 122°23'0 0.0
2018-Apr-14 12:28N 47°39' W 122°23'0 0.0
2018-Apr-14 11:58N 47°39' W 122°23'0 0.0
2018-Apr-14 11:28N 47°39' W 122°23'0 0.0
2018-Apr-14 10:58N 47°39' W 122°23'0 0.0
2018-Apr-14 10:28N 47°39' W 122°23'0 0.0
2018-Apr-14 09:59N 47°39' W 122°23'0 0.0
2018-Apr-14 09:28N 47°39' W 122°23'0 0.0
2018-Apr-14 08:58N 47°39' W 122°23'0 0.0
2018-Apr-14 08:28N 47°39' W 122°23'0 0.0
2018-Apr-14 07:58N 47°39' W 122°23'0 0.0
2018-Apr-14 07:28N 47°39' W 122°23'0 0.0
2018-Apr-14 06:58N 47°39' W 122°23'0 0.0
2018-Apr-14 06:28N 47°39' W 122°23'0 0.0
2018-Apr-14 05:58N 47°39' W 122°23'0 0.0
2018-Apr-14 05:28N 47°39' W 122°23'0 0.0
2018-Apr-14 04:58N 47°39' W 122°23'0 0.0
2018-Apr-14 04:28N 47°39' W 122°23'0 0.0
2018-Apr-14 03:58N 47°39' W 122°23'0 0.0
2018-Apr-14 03:29N 47°39' W 122°23'0 0.0
2018-Apr-14 02:58N 47°39' W 122°23'0 0.0
2018-Apr-14 02:28N 47°39' W 122°23'0 0.0
2018-Apr-14 01:58N 47°39' W 122°23'0 0.0
2018-Apr-14 01:28N 47°39' W 122°23'0 0.0
2018-Apr-14 00:58N 47°39' W 122°23'0 0.0
2018-Apr-14 00:28N 47°39' W 122°23'0 0.0
2018-Apr-13 23:58N 47°39' W 122°23'0 0.0
2018-Apr-13 23:28N 47°39' W 122°23'0 0.0
2018-Apr-13 22:58N 47°39' W 122°23'0 0.0
2018-Apr-13 22:28N 47°39' W 122°23'0 0.0
2018-Apr-13 21:58N 47°39' W 122°23'0 0.0
2018-Apr-13 21:28N 47°39' W 122°23'0 0.0
2018-Apr-13 20:55N 47°39' W 122°23'0 0.0
2018-Apr-13 20:28N 47°39' W 122°23'0 0.0
2018-Apr-13 19:58N 47°39' W 122°23'0 0.0
2018-Apr-13 19:28N 47°39' W 122°23'0 0.0
2018-Apr-13 18:58N 47°39' W 122°23'0 0.0
2018-Apr-13 18:28N 47°39' W 122°23'0 0.0
2018-Apr-13 17:55N 47°39' W 122°23'0 0.0
2018-Apr-13 17:25N 47°39' W 122°23'0 0.0
2018-Apr-13 16:58N 47°39' W 122°23'0 0.0
2018-Apr-13 16:28N 47°39' W 122°23'0 0.0
2018-Apr-13 15:58N 47°39' W 122°23'0 0.0
2018-Apr-13 15:25N 47°39' W 122°23'0 0.0
2018-Apr-13 14:58N 47°39' W 122°23'0 0.0
2018-Apr-13 14:28N 47°39' W 122°23'0 0.0
2018-Apr-13 13:58N 47°39' W 122°23'0 0.0
2018-Apr-13 13:29N 47°39' W 122°23'0 0.0
2018-Apr-13 12:59N 47°39' W 122°23'0 0.0
2018-Apr-13 12:29N 47°39' W 122°23'0 0.0
2018-Apr-13 11:58N 47°39' W 122°23'0 0.0
2018-Apr-13 11:29N 47°39' W 122°23'0 0.0
2018-Apr-13 10:53N 47°39' W 122°23'0 0.0
2018-Apr-13 10:29N 47°39' W 122°23'0 0.0
2018-Apr-13 09:59N 47°39' W 122°23'0 0.0
2018-Apr-13 09:29N 47°39' W 122°23'0 0.0
2018-Apr-13 08:59N 47°39' W 122°23'0 0.0
2018-Apr-13 08:29N 47°39' W 122°23'0 0.0
2018-Apr-13 07:59N 47°39' W 122°23'0 0.0
2018-Apr-13 07:29N 47°39' W 122°23'0 0.0
2018-Apr-13 06:59N 47°39' W 122°23'0 0.0
2018-Apr-13 06:29N 47°39' W 122°23'0 0.0
2018-Apr-13 05:59N 47°39' W 122°23'0 0.0
2018-Apr-13 05:29N 47°39' W 122°23'0 0.0
2018-Apr-13 04:59N 47°39' W 122°23'0 0.0
2018-Apr-13 04:26N 47°39' W 122°23'0 0.0
2018-Apr-13 03:59N 47°39' W 122°23'0 0.0
2018-Apr-13 03:29N 47°39' W 122°23'0 0.0
2018-Apr-13 02:59N 47°39' W 122°23'0 0.0
2018-Apr-13 02:29N 47°39' W 122°23'0 0.0
2018-Apr-13 01:59N 47°39' W 122°23'0 0.0
2018-Apr-13 01:29N 47°39' W 122°23'0 0.0
2018-Apr-13 00:56N 47°39' W 122°23'0 0.0
2018-Apr-13 00:26N 47°39' W 122°23'0 0.0
2018-Apr-12 23:59N 47°39' W 122°23'0 0.0
2018-Apr-12 23:29N 47°39' W 122°23'0 0.0
2018-Apr-12 22:59N 47°39' W 122°23'0 0.0
2018-Apr-12 22:29N 47°39' W 122°23'0 0.0
2018-Apr-12 21:59N 47°39' W 122°23'0 0.0
2018-Apr-12 21:29N 47°39' W 122°23'0 0.0
2018-Apr-12 20:59N 47°39' W 122°23'0 0.0
2018-Apr-12 20:29N 47°39' W 122°23'0 0.0
2018-Apr-12 19:59N 47°39' W 122°23'0 0.0
2018-Apr-12 19:29N 47°39' W 122°23'0 0.0
2018-Apr-12 18:59N 47°39' W 122°23'0 0.0
2018-Apr-12 18:29N 47°39' W 122°23'0 0.0
2018-Apr-12 17:59N 47°39' W 122°23'0 0.0
2018-Apr-12 17:29N 47°39' W 122°23'0 0.0
2018-Apr-12 16:59N 47°39' W 122°23'0 0.0
2018-Apr-12 16:26N 47°39' W 122°23'0 0.0
2018-Apr-12 15:59N 47°39' W 122°23'0 0.0
2018-Apr-12 15:29N 47°39' W 122°23'0 0.0
2018-Apr-12 14:59N 47°39' W 122°23'0 0.0
2018-Apr-12 14:29N 47°39' W 122°23'0 0.0
2018-Apr-12 13:59N 47°39' W 122°23'0 0.0
2018-Apr-12 13:29N 47°39' W 122°23'0 0.0
2018-Apr-12 12:59N 47°39' W 122°23'0 0.0
2018-Apr-12 12:26N 47°39' W 122°23'0 0.0
2018-Apr-12 11:59N 47°39' W 122°23'0 0.0
2018-Apr-12 11:29N 47°39' W 122°23'0 0.0
2018-Apr-12 10:59N 47°39' W 122°23'0 0.0
2018-Apr-12 10:29N 47°39' W 122°23'0 0.0
2018-Apr-12 09:59N 47°39' W 122°23'0 0.0
2018-Apr-12 09:29N 47°39' W 122°23'0 0.0
2018-Apr-12 08:59N 47°39' W 122°23'0 0.0
2018-Apr-12 08:26N 47°39' W 122°23'0 0.0
2018-Apr-12 07:59N 47°39' W 122°23'0 0.0
2018-Apr-12 07:29N 47°39' W 122°23'  
Track history (hours):
 
Tides and Currents Weather Stations Pressure Air Temp Water Temp Dewpoint Dewpoint Depression Visibility Wind Speed Wind Dir Waves Ship Positions

Kittiwake

Owner: EATON, CHARLES M, SEATTLE, WA. More information available from US FCC via Universal Licensing System and Coast Guard Vessel Documentation Center.

Last reported at 2018-Apr-22 07:28 UTC. Time now 2018-Apr-27 08:42 UTC.
Position N 47°39' W 122°23'.

Length 13 m.

Type: . MMSI: 367343760.

Date/timePositionNaut miles runAvg speedWind from/ knotsBaromVisibWave heightAir tempDewpointWater temp
2018-Apr-22 07:28N 47°39' W 122°23'2 3.5
2018-Apr-22 07:00N 47°39' W 122°21'1 1.8
2018-Apr-22 06:15N 47°39' W 122°19'0 0.0
2018-Apr-22 02:17N 47°39' W 122°18'0 0.1
2018-Apr-21 21:54N 47°39' W 122°19'2 5.1
2018-Apr-21 21:31N 47°39' W 122°22'1 0.1
2018-Apr-21 05:28N 47°39' W 122°23'2 4.2
2018-Apr-21 05:01N 47°39' W 122°20'1 1.7
2018-Apr-21 04:19N 47°39' W 122°19'1 0.1
2018-Apr-20 23:57N 47°39' W 122°18'1 0.2
2018-Apr-20 21:16N 47°39' W 122°18'0 0.6
2018-Apr-20 20:54N 47°39' W 122°19'2 4.9
2018-Apr-20 20:30N 47°39' W 122°22'1 0.0
2018-Apr-18 23:47N 47°39' W 122°23'0 0.0
2018-Apr-18 22:31N 47°39' W 122°23'0 0.0
2018-Apr-18 22:28N 47°39' W 122°23'0 0.0
2018-Apr-18 21:58N 47°39' W 122°23'0 0.0
2018-Apr-18 21:28N 47°39' W 122°23'0 0.0
2018-Apr-18 20:58N 47°39' W 122°23'0 0.0
2018-Apr-18 20:28N 47°39' W 122°23'0 0.0
2018-Apr-18 19:58N 47°39' W 122°23'0 0.0
2018-Apr-18 19:28N 47°39' W 122°23'0 0.0
2018-Apr-18 18:58N 47°39' W 122°23'0 0.0
2018-Apr-18 18:28N 47°39' W 122°23'0 0.0
2018-Apr-18 17:58N 47°39' W 122°23'0 0.0
2018-Apr-18 17:28N 47°39' W 122°23'0 0.0
2018-Apr-18 16:58N 47°39' W 122°23'0 0.0
2018-Apr-18 16:28N 47°39' W 122°23'0 0.0
2018-Apr-18 15:58N 47°39' W 122°23'0 0.0
2018-Apr-18 15:28N 47°39' W 122°23'0 0.0
2018-Apr-18 14:58N 47°39' W 122°23'0 0.0
2018-Apr-18 14:28N 47°39' W 122°23'0 0.0
2018-Apr-18 13:58N 47°39' W 122°23'0 0.0
2018-Apr-18 13:28N 47°39' W 122°23'0 0.0
2018-Apr-18 12:58N 47°39' W 122°23'0 0.0
2018-Apr-18 12:28N 47°39' W 122°23'0 0.0
2018-Apr-18 11:58N 47°39' W 122°23'0 0.0
2018-Apr-18 11:28N 47°39' W 122°23'0 0.0
2018-Apr-18 10:58N 47°39' W 122°23'0 0.0
2018-Apr-18 10:28N 47°39' W 122°23'0 0.0
2018-Apr-18 09:58N 47°39' W 122°23'0 0.0
2018-Apr-18 09:28N 47°39' W 122°23'0 0.0
2018-Apr-18 08:58N 47°39' W 122°23'0 0.0
2018-Apr-18 08:28N 47°39' W 122°23'0 0.0
2018-Apr-18 07:58N 47°39' W 122°23'0 0.0
2018-Apr-18 07:28N 47°39' W 122°23'0 0.0
2018-Apr-18 06:58N 47°39' W 122°23'0 0.0
2018-Apr-18 06:28N 47°39' W 122°23'0 0.0
2018-Apr-18 05:58N 47°39' W 122°23'0 0.0
2018-Apr-18 05:28N 47°39' W 122°23'0 0.0
2018-Apr-18 04:58N 47°39' W 122°23'0 0.0
2018-Apr-18 04:28N 47°39' W 122°23'0 0.0
2018-Apr-18 03:58N 47°39' W 122°23'0 0.0
2018-Apr-18 03:28N 47°39' W 122°23'0 0.0
2018-Apr-18 02:58N 47°39' W 122°23'0 0.0
2018-Apr-18 02:28N 47°39' W 122°23'0 0.0
2018-Apr-18 01:58N 47°39' W 122°23'0 0.0
2018-Apr-18 01:28N 47°39' W 122°23'0 0.0
2018-Apr-18 00:58N 47°39' W 122°23'0 0.0
2018-Apr-18 00:28N 47°39' W 122°23'0 0.0
2018-Apr-17 23:58N 47°39' W 122°23'0 0.0
2018-Apr-17 23:28N 47°39' W 122°23'0 0.0
2018-Apr-17 22:58N 47°39' W 122°23'0 0.0
2018-Apr-17 22:28N 47°39' W 122°23'0 0.0
2018-Apr-17 21:58N 47°39' W 122°23'0 0.0
2018-Apr-17 21:28N 47°39' W 122°23'0 0.0
2018-Apr-17 20:58N 47°39' W 122°23'0 0.0
2018-Apr-17 20:28N 47°39' W 122°23'0 0.0
2018-Apr-17 19:58N 47°39' W 122°23'0 0.0
2018-Apr-17 19:28N 47°39' W 122°23'0 0.0
2018-Apr-17 18:58N 47°39' W 122°23'0 0.0
2018-Apr-17 18:28N 47°39' W 122°23'0 0.0
2018-Apr-17 17:58N 47°39' W 122°23'0 0.0
2018-Apr-17 17:28N 47°39' W 122°23'0 0.0
2018-Apr-17 16:58N 47°39' W 122°23'0 0.0
2018-Apr-17 16:28N 47°39' W 122°23'0 0.0
2018-Apr-17 15:58N 47°39' W 122°23'0 0.0
2018-Apr-17 15:28N 47°39' W 122°23'0 0.0
2018-Apr-17 14:58N 47°39' W 122°23'0 0.0
2018-Apr-17 14:28N 47°39' W 122°23'0 0.0
2018-Apr-17 13:58N 47°39' W 122°23'0 0.0
2018-Apr-17 13:28N 47°39' W 122°23'0 0.0
2018-Apr-17 12:58N 47°39' W 122°23'0 0.0
2018-Apr-17 12:28N 47°39' W 122°23'0 0.0
2018-Apr-17 11:58N 47°39' W 122°23'0 0.0
2018-Apr-17 11:28N 47°39' W 122°23'0 0.0
2018-Apr-17 10:58N 47°39' W 122°23'0 0.0
2018-Apr-17 10:28N 47°39' W 122°23'0 0.0
2018-Apr-17 09:55N 47°39' W 122°23'0 0.0
2018-Apr-17 09:28N 47°39' W 122°23'0 0.0
2018-Apr-17 08:58N 47°39' W 122°23'0 0.0
2018-Apr-17 08:28N 47°39' W 122°23'0 0.0
2018-Apr-17 07:58N 47°39' W 122°23'0 0.0
2018-Apr-17 07:28N 47°39' W 122°23'0 0.0
2018-Apr-17 06:55N 47°39' W 122°23'0 0.0
2018-Apr-17 06:28N 47°39' W 122°23'0 0.0
2018-Apr-17 05:59N 47°39' W 122°23'0 0.0
2018-Apr-17 05:28N 47°39' W 122°23'0 0.0
2018-Apr-17 04:58N 47°39' W 122°23'0 0.0
2018-Apr-17 04:28N 47°39' W 122°23'0 0.0
2018-Apr-17 03:58N 47°39' W 122°23'0 0.0
2018-Apr-17 03:28N 47°39' W 122°23'0 0.0
2018-Apr-17 02:58N 47°39' W 122°23'0 0.0
2018-Apr-17 02:28N 47°39' W 122°23'0 0.0
2018-Apr-17 01:58N 47°39' W 122°23'0 0.0
2018-Apr-17 01:28N 47°39' W 122°23'0 0.0
2018-Apr-17 00:58N 47°39' W 122°23'0 0.0
2018-Apr-17 00:28N 47°39' W 122°23'0 0.0
2018-Apr-16 23:58N 47°39' W 122°23'0 0.0
2018-Apr-16 23:28N 47°39' W 122°23'0 0.0
2018-Apr-16 22:58N 47°39' W 122°23'0 0.0
2018-Apr-16 22:28N 47°39' W 122°23'0 0.0
2018-Apr-16 21:59N 47°39' W 122°23'0 0.0
2018-Apr-16 21:29N 47°39' W 122°23'0 0.0
2018-Apr-16 20:58N 47°39' W 122°23'0 0.0
2018-Apr-16 20:28N 47°39' W 122°23'0 0.0
2018-Apr-16 19:58N 47°39' W 122°23'0 0.0
2018-Apr-16 19:28N 47°39' W 122°23'0 0.0
2018-Apr-16 18:58N 47°39' W 122°23'0 0.0
2018-Apr-16 18:28N 47°39' W 122°23'0 0.0
2018-Apr-16 17:58N 47°39' W 122°23'0 0.0
2018-Apr-16 17:28N 47°39' W 122°23'0 0.0
2018-Apr-16 16:58N 47°39' W 122°23'0 0.0
2018-Apr-16 16:28N 47°39' W 122°23'0 0.0
2018-Apr-16 15:58N 47°39' W 122°23'0 0.0
2018-Apr-16 15:28N 47°39' W 122°23'0 0.0
2018-Apr-16 14:58N 47°39' W 122°23'0 0.0
2018-Apr-16 14:28N 47°39' W 122°23'0 0.0
2018-Apr-16 13:58N 47°39' W 122°23'0 0.0
2018-Apr-16 13:28N 47°39' W 122°23'0 0.0
2018-Apr-16 12:58N 47°39' W 122°23'0 0.0
2018-Apr-16 12:28N 47°39' W 122°23'0 0.0
2018-Apr-16 11:58N 47°39' W 122°23'0 0.0
2018-Apr-16 11:28N 47°39' W 122°23'0 0.0
2018-Apr-16 10:58N 47°39' W 122°23'0 0.0
2018-Apr-16 10:28N 47°39' W 122°23'0 0.0
2018-Apr-16 09:58N 47°39' W 122°23'0 0.0
2018-Apr-16 09:28N 47°39' W 122°23'0 0.0
2018-Apr-16 08:58N 47°39' W 122°23'0 0.0
2018-Apr-16 08:28N 47°39' W 122°23'0 0.0
2018-Apr-16 07:58N 47°39' W 122°23'0 0.0
2018-Apr-16 07:28N 47°39' W 122°23'0 0.0
2018-Apr-16 06:55N 47°39' W 122°23'0 0.0
2018-Apr-16 06:25N 47°39' W 122°23'0 0.0
2018-Apr-16 05:58N 47°39' W 122°23'0 0.0
2018-Apr-16 05:28N 47°39' W 122°23'0 0.0
2018-Apr-16 04:58N 47°39' W 122°23'0 0.0
2018-Apr-16 04:28N 47°39' W 122°23'0 0.0
2018-Apr-16 03:58N 47°39' W 122°23'0 0.0
2018-Apr-16 03:25N 47°39' W 122°23'0 0.0
2018-Apr-16 02:58N 47°39' W 122°23'0 0.0
2018-Apr-16 02:28N 47°39' W 122°23'0 0.0
2018-Apr-16 01:58N 47°39' W 122°23'0 0.0
2018-Apr-16 01:28N 47°39' W 122°23'0 0.0
2018-Apr-16 00:58N 47°39' W 122°23'0 0.0
2018-Apr-16 00:28N 47°39' W 122°23'0 0.0
2018-Apr-15 23:58N 47°39' W 122°23'0 0.0
2018-Apr-15 23:28N 47°39' W 122°23'0 0.0
2018-Apr-15 22:58N 47°39' W 122°23'0 0.0
2018-Apr-15 22:28N 47°39' W 122°23'0 0.0
2018-Apr-15 21:58N 47°39' W 122°23'0 0.0
2018-Apr-15 21:28N 47°39' W 122°23'0 0.0
2018-Apr-15 20:58N 47°39' W 122°23'0 0.0
2018-Apr-15 20:28N 47°39' W 122°23'0 0.0
2018-Apr-15 19:58N 47°39' W 122°23'0 0.0
2018-Apr-15 19:28N 47°39' W 122°23'0 0.0
2018-Apr-15 18:58N 47°39' W 122°23'0 0.0
2018-Apr-15 18:28N 47°39' W 122°23'0 0.0
2018-Apr-15 17:58N 47°39' W 122°23'0 0.0
2018-Apr-15 17:28N 47°39' W 122°23'0 0.0
2018-Apr-15 16:58N 47°39' W 122°23'0 0.0
2018-Apr-15 16:28N 47°39' W 122°23'0 0.0
2018-Apr-15 15:58N 47°39' W 122°23'0 0.0
2018-Apr-15 15:28N 47°39' W 122°23'0 0.0
2018-Apr-15 14:55N 47°39' W 122°23'0 0.0
2018-Apr-15 14:28N 47°39' W 122°23'0 0.0
2018-Apr-15 13:58N 47°39' W 122°23'0 0.0
2018-Apr-15 13:28N 47°39' W 122°23'0 0.0
2018-Apr-15 12:58N 47°39' W 122°23'0 0.0
2018-Apr-15 12:28N 47°39' W 122°23'0 0.0
2018-Apr-15 11:58N 47°39' W 122°23'0 0.0
2018-Apr-15 11:28N 47°39' W 122°23'0 0.0
2018-Apr-15 10:58N 47°39' W 122°23'0 0.0
2018-Apr-15 10:29N 47°39' W 122°23'0 0.0
2018-Apr-15 09:59N 47°39' W 122°23'0 0.0
2018-Apr-15 09:28N 47°39' W 122°23'0 0.0
2018-Apr-15 08:58N 47°39' W 122°23'0 0.0
2018-Apr-15 08:28N 47°39' W 122°23'0 0.0
2018-Apr-15 07:58N 47°39' W 122°23'0 0.0
2018-Apr-15 07:28N 47°39' W 122°23'0 0.0
2018-Apr-15 06:58N 47°39' W 122°23'0 0.0
2018-Apr-15 06:28N 47°39' W 122°23'0 0.0
2018-Apr-15 05:58N 47°39' W 122°23'0 0.0
2018-Apr-15 05:28N 47°39' W 122°23'0 0.0
2018-Apr-15 04:58N 47°39' W 122°23'0 0.0
2018-Apr-15 04:28N 47°39' W 122°23'0 0.0
2018-Apr-15 03:58N 47°39' W 122°23'0 0.0
2018-Apr-15 03:28N 47°39' W 122°23'0 0.0
2018-Apr-15 02:58N 47°39' W 122°23'0 0.0
2018-Apr-15 02:28N 47°39' W 122°23'0 0.0
2018-Apr-15 01:58N 47°39' W 122°23'0 0.0
2018-Apr-15 01:28N 47°39' W 122°23'0 0.0
2018-Apr-15 00:58N 47°39' W 122°23'0 0.0
2018-Apr-15 00:28N 47°39' W 122°23'0 0.0
2018-Apr-14 23:58N 47°39' W 122°23'0 0.0
2018-Apr-14 23:25N 47°39' W 122°23'0 0.0
2018-Apr-14 22:58N 47°39' W 122°23'0 0.0
2018-Apr-14 22:28N 47°39' W 122°23'0 0.0
2018-Apr-14 21:58N 47°39' W 122°23'0 0.0
2018-Apr-14 21:28N 47°39' W 122°23'0 0.0
2018-Apr-14 20:46N 47°39' W 122°23'0 0.0
2018-Apr-14 20:25N 47°39' W 122°23'0 0.0
2018-Apr-14 19:58N 47°39' W 122°23'0 0.0
2018-Apr-14 19:25N 47°39' W 122°23'0 0.0
2018-Apr-14 18:58N 47°39' W 122°23'0 0.0
2018-Apr-14 18:28N 47°39' W 122°23'0 0.0
2018-Apr-14 17:52N 47°39' W 122°23'0 0.0
2018-Apr-14 17:28N 47°39' W 122°23'0 0.0
2018-Apr-14 16:58N 47°39' W 122°23'0 0.0
2018-Apr-14 16:28N 47°39' W 122°23'0 0.0
2018-Apr-14 15:58N 47°39' W 122°23'0 0.0
2018-Apr-14 15:28N 47°39' W 122°23'0 0.0
2018-Apr-14 14:58N 47°39' W 122°23'0 0.0
2018-Apr-14 14:28N 47°39' W 122°23'0 0.0
2018-Apr-14 13:58N 47°39' W 122°23'0 0.0
2018-Apr-14 13:28N 47°39' W 122°23'0 0.0
2018-Apr-14 12:58N 47°39' W 122°23'0 0.0
2018-Apr-14 12:28N 47°39' W 122°23'0 0.0
2018-Apr-14 11:58N 47°39' W 122°23'0 0.0
2018-Apr-14 11:28N 47°39' W 122°23'0 0.0
2018-Apr-14 10:58N 47°39' W 122°23'0 0.0
2018-Apr-14 10:28N 47°39' W 122°23'0 0.0
2018-Apr-14 09:59N 47°39' W 122°23'0 0.0
2018-Apr-14 09:28N 47°39' W 122°23'0 0.0
2018-Apr-14 08:58N 47°39' W 122°23'0 0.0
2018-Apr-14 08:28N 47°39' W 122°23'0 0.0
2018-Apr-14 07:58N 47°39' W 122°23'0 0.0
2018-Apr-14 07:28N 47°39' W 122°23'0 0.0
2018-Apr-14 06:58N 47°39' W 122°23'0 0.0
2018-Apr-14 06:28N 47°39' W 122°23'0 0.0
2018-Apr-14 05:58N 47°39' W 122°23'0 0.0
2018-Apr-14 05:28N 47°39' W 122°23'0 0.0
2018-Apr-14 04:58N 47°39' W 122°23'0 0.0
2018-Apr-14 04:28N 47°39' W 122°23'0 0.0
2018-Apr-14 03:58N 47°39' W 122°23'0 0.0
2018-Apr-14 03:29N 47°39' W 122°23'0 0.0
2018-Apr-14 02:58N 47°39' W 122°23'0 0.0
2018-Apr-14 02:28N 47°39' W 122°23'0 0.0
2018-Apr-14 01:58N 47°39' W 122°23'0 0.0
2018-Apr-14 01:28N 47°39' W 122°23'0 0.0
2018-Apr-14 00:58N 47°39' W 122°23'0 0.0
2018-Apr-14 00:28N 47°39' W 122°23'0 0.0
2018-Apr-13 23:58N 47°39' W 122°23'0 0.0
2018-Apr-13 23:28N 47°39' W 122°23'0 0.0
2018-Apr-13 22:58N 47°39' W 122°23'0 0.0
2018-Apr-13 22:28N 47°39' W 122°23'0 0.0
2018-Apr-13 21:58N 47°39' W 122°23'0 0.0
2018-Apr-13 21:28N 47°39' W 122°23'0 0.0
2018-Apr-13 20:55N 47°39' W 122°23'0 0.0
2018-Apr-13 20:28N 47°39' W 122°23'0 0.0
2018-Apr-13 19:58N 47°39' W 122°23'0 0.0
2018-Apr-13 19:28N 47°39' W 122°23'0 0.0
2018-Apr-13 18:58N 47°39' W 122°23'0 0.0
2018-Apr-13 18:28N 47°39' W 122°23'0 0.0
2018-Apr-13 17:55N 47°39' W 122°23'0 0.0
2018-Apr-13 17:25N 47°39' W 122°23'0 0.0
2018-Apr-13 16:58N 47°39' W 122°23'0 0.0
2018-Apr-13 16:28N 47°39' W 122°23'0 0.0
2018-Apr-13 15:58N 47°39' W 122°23'0 0.0
2018-Apr-13 15:25N 47°39' W 122°23'0 0.0
2018-Apr-13 14:58N 47°39' W 122°23'0 0.0
2018-Apr-13 14:28N 47°39' W 122°23'0 0.0
2018-Apr-13 13:58N 47°39' W 122°23'0 0.0
2018-Apr-13 13:29N 47°39' W 122°23'0 0.0
2018-Apr-13 12:59N 47°39' W 122°23'0 0.0
2018-Apr-13 12:29N 47°39' W 122°23'0 0.0
2018-Apr-13 11:58N 47°39' W 122°23'0 0.0
2018-Apr-13 11:29N 47°39' W 122°23'0 0.0
2018-Apr-13 10:53N 47°39' W 122°23'0 0.0
2018-Apr-13 10:29N 47°39' W 122°23'0 0.0
2018-Apr-13 09:59N 47°39' W 122°23'0 0.0
2018-Apr-13 09:29N 47°39' W 122°23'0 0.0
2018-Apr-13 08:59N 47°39' W 122°23'0 0.0
2018-Apr-13 08:29N 47°39' W 122°23'0 0.0
2018-Apr-13 07:59N 47°39' W 122°23'0 0.0
2018-Apr-13 07:29N 47°39' W 122°23'0 0.0
2018-Apr-13 06:59N 47°39' W 122°23'0 0.0
2018-Apr-13 06:29N 47°39' W 122°23'0 0.0
2018-Apr-13 05:59N 47°39' W 122°23'0 0.0
2018-Apr-13 05:29N 47°39' W 122°23'0 0.0
2018-Apr-13 04:59N 47°39' W 122°23'0 0.0
2018-Apr-13 04:26N 47°39' W 122°23'0 0.0
2018-Apr-13 03:59N 47°39' W 122°23'0 0.0
2018-Apr-13 03:29N 47°39' W 122°23'0 0.0
2018-Apr-13 02:59N 47°39' W 122°23'0 0.0
2018-Apr-13 02:29N 47°39' W 122°23'0 0.0
2018-Apr-13 01:59N 47°39' W 122°23'0 0.0
2018-Apr-13 01:29N 47°39' W 122°23'0 0.0
2018-Apr-13 00:56N 47°39' W 122°23'0 0.0
2018-Apr-13 00:26N 47°39' W 122°23'0 0.0
2018-Apr-12 23:59N 47°39' W 122°23'0 0.0
2018-Apr-12 23:29N 47°39' W 122°23'0 0.0
2018-Apr-12 22:59N 47°39' W 122°23'0 0.0
2018-Apr-12 22:29N 47°39' W 122°23'0 0.0
2018-Apr-12 21:59N 47°39' W 122°23'0 0.0
2018-Apr-12 21:29N 47°39' W 122°23'0 0.0
2018-Apr-12 20:59N 47°39' W 122°23'0 0.0
2018-Apr-12 20:29N 47°39' W 122°23'0 0.0
2018-Apr-12 19:59N 47°39' W 122°23'0 0.0
2018-Apr-12 19:29N 47°39' W 122°23'0 0.0
2018-Apr-12 18:59N 47°39' W 122°23'0 0.0
2018-Apr-12 18:29N 47°39' W 122°23'0 0.0
2018-Apr-12 17:59N 47°39' W 122°23'0 0.0
2018-Apr-12 17:29N 47°39' W 122°23'0 0.0
2018-Apr-12 16:59N 47°39' W 122°23'0 0.0
2018-Apr-12 16:26N 47°39' W 122°23'0 0.0
2018-Apr-12 15:59N 47°39' W 122°23'0 0.0
2018-Apr-12 15:29N 47°39' W 122°23'0 0.0
2018-Apr-12 14:59N 47°39' W 122°23'0 0.0
2018-Apr-12 14:29N 47°39' W 122°23'0 0.0
2018-Apr-12 13:59N 47°39' W 122°23'0 0.0
2018-Apr-12 13:29N 47°39' W 122°23'0 0.0
2018-Apr-12 12:59N 47°39' W 122°23'0 0.0
2018-Apr-12 12:26N 47°39' W 122°23'0 0.0
2018-Apr-12 11:59N 47°39' W 122°23'0 0.0
2018-Apr-12 11:29N 47°39' W 122°23'0 0.0
2018-Apr-12 10:59N 47°39' W 122°23'0 0.0
2018-Apr-12 10:29N 47°39' W 122°23'0 0.0
2018-Apr-12 09:59N 47°39' W 122°23'0 0.0
2018-Apr-12 09:29N 47°39' W 122°23'0 0.0
2018-Apr-12 08:59N 47°39' W 122°23'0 0.0
2018-Apr-12 08:26N 47°39' W 122°23'0 0.0
2018-Apr-12 07:59N 47°39' W 122°23'0 0.0
2018-Apr-12 07:29N 47°39' W 122°23'  

Dump ship's entire track history